Time;durP1;ratioP1;P1;durP2;ratioP2;P2;SDS_P1;SDS_P2;PMS_P1;PMS_P2;Temp;Humidity;BMP_temperature;BMP_pressure;BME280_temperature;BME280_humidity;BME280_pressure;Samples;Min_cycle;Max_cycle;Signal;HPM_P1;HPM_P2
2023/03/02 00:00:45;;;;;;;36.10;20.98;;;2.70;99.90;;;;;;4986754;28;20493;-78
2023/03/02 00:03:13;;;;;;;33.85;19.25;;;2.70;99.90;;;;;;4987214;28;20048;-78
2023/03/02 00:05:40;;;;;;;34.28;19.55;;;2.70;99.90;;;;;;4977556;28;20053;-79
2023/03/02 00:08:25;;;;;;;34.17;18.60;;;2.70;99.90;;;;;;4987208;28;20133;-79
2023/03/02 00:10:53;;;;;;;34.33;18.98;;;2.90;99.90;;;;;;4990674;28;20515;-78
2023/03/02 00:13:19;;;;;;;32.47;19.38;;;2.70;99.90;;;;;;4988893;28;20117;-79
2023/03/02 00:15:45;;;;;;;33.97;19.10;;;2.70;99.90;;;;;;4974947;28;20070;-79
2023/03/02 00:18:10;;;;;;;37.92;21.33;;;2.70;99.90;;;;;;4989064;28;20508;-79
2023/03/02 00:20:36;;;;;;;37.15;20.95;;;2.70;99.90;;;;;;4989783;28;20112;-78
2023/03/02 00:23:02;;;;;;;37.60;20.27;;;2.70;99.90;;;;;;4988602;28;20042;-79
2023/03/02 00:25:27;;;;;;;35.13;19.05;;;2.70;99.90;;;;;;4990331;28;20065;-78
2023/03/02 00:27:53;;;;;;;35.97;20.23;;;2.70;99.90;;;;;;4984998;28;20051;-79
2023/03/02 00:30:19;;;;;;;36.08;19.42;;;2.70;99.90;;;;;;4989762;28;20043;-79
2023/03/02 00:32:44;;;;;;;34.20;19.58;;;2.60;99.90;;;;;;4989444;28;20113;-78
2023/03/02 00:35:10;;;;;;;34.35;20.20;;;2.60;99.90;;;;;;4989310;28;20545;-78
2023/03/02 00:37:37;;;;;;;37.45;20.13;;;2.60;99.90;;;;;;4988365;28;20525;-79
2023/03/02 00:40:08;;;;;;;38.65;19.67;;;2.60;99.90;;;;;;4989410;28;20050;-79
2023/03/02 00:42:35;;;;;;;41.30;22.42;;;2.60;99.90;;;;;;4988314;28;20038;-79
2023/03/02 00:45:00;;;;;;;38.58;21.20;;;2.60;99.90;;;;;;4988193;28;20058;-79
2023/03/02 00:47:31;;;;;;;40.95;21.33;;;2.60;99.90;;;;;;4988875;28;20042;-79
2023/03/02 00:49:57;;;;;;;40.05;21.00;;;2.50;99.90;;;;;;4983750;28;20042;-78
2023/03/02 00:52:23;;;;;;;39.42;21.40;;;2.50;99.90;;;;;;4988195;28;20050;-79
2023/03/02 00:54:48;;;;;;;41.00;21.30;;;2.50;99.90;;;;;;4988614;28;20045;-79
2023/03/02 00:57:14;;;;;;;45.67;22.83;;;2.50;99.90;;;;;;4983812;28;20046;-79
2023/03/02 00:59:39;;;;;;;43.60;22.05;;;2.50;99.90;;;;;;4989353;28;20064;-78
2023/03/02 01:02:05;;;;;;;43.88;22.60;;;2.40;99.90;;;;;;4989874;28;20088;-78
2023/03/02 01:04:34;;;;;;;44.45;22.45;;;2.40;99.90;;;;;;4983476;28;20042;-78
2023/03/02 01:07:04;;;;;;;44.13;24.85;;;2.30;99.90;;;;;;4986098;28;20046;-79
2023/03/02 01:09:30;;;;;;;45.72;23.50;;;2.30;99.90;;;;;;4988426;28;20054;-79
2023/03/02 01:11:55;;;;;;;40.45;23.00;;;2.40;99.90;;;;;;4988684;28;20053;-79
2023/03/02 01:14:22;;;;;;;46.28;23.63;;;2.30;99.90;;;;;;4987983;28;20050;-79
2023/03/02 01:16:47;;;;;;;51.08;24.52;;;2.30;99.90;;;;;;4988364;28;20042;-79
2023/03/02 01:19:14;;;;;;;44.90;22.75;;;2.30;99.90;;;;;;4986008;28;20407;-79
2023/03/02 01:21:40;;;;;;;45.45;23.77;;;2.30;99.90;;;;;;4989594;28;20125;-79
2023/03/02 01:24:07;;;;;;;45.42;23.35;;;2.30;99.90;;;;;;4986226;28;20512;-79
2023/03/02 01:26:33;;;;;;;44.80;22.65;;;2.30;99.90;;;;;;4986050;28;20057;-79
2023/03/02 01:28:59;;;;;;;48.95;24.52;;;2.30;99.90;;;;;;4987771;28;20125;-79
2023/03/02 01:31:25;;;;;;;46.78;24.30;;;2.30;99.90;;;;;;4980912;28;20134;-79
2023/03/02 01:33:51;;;;;;;48.03;23.15;;;2.40;99.90;;;;;;4976447;28;20634;-79
2023/03/02 01:36:17;;;;;;;45.47;23.08;;;2.40;99.90;;;;;;4986111;28;20058;-79
2023/03/02 01:38:43;;;;;;;44.45;23.60;;;2.40;99.90;;;;;;4987898;28;20104;-79
2023/03/02 01:41:08;;;;;;;46.15;23.92;;;2.40;99.90;;;;;;4985520;28;20046;-79
2023/03/02 01:43:34;;;;;;;44.58;23.92;;;2.30;99.90;;;;;;4988338;28;20050;-79
2023/03/02 01:46:24;;;;;;;52.33;24.13;;;2.30;99.90;;;;;;4982514;28;20046;-79
2023/03/02 01:49:13;;;;;;;;;;;;;;;;;;;;;
2023/03/02 01:51:46;;;;;;;43.53;21.63;;;2.30;99.90;;;;;;4988233;28;20144;-78
2023/03/02 01:54:21;;;;;;;43.65;23.15;;;2.30;99.90;;;;;;4986368;28;20054;-79
2023/03/02 01:56:49;;;;;;;42.55;22.58;;;2.20;99.90;;;;;;4989041;28;20038;-79
2023/03/02 01:59:21;;;;;;;41.83;21.63;;;3.00;99.90;;;;;;4986129;28;20069;-79
2023/03/02 02:01:51;;;;;;;44.10;21.92;;;2.20;99.90;;;;;;4985501;28;20043;-79
2023/03/02 02:04:17;;;;;;;42.83;22.08;;;2.10;99.90;;;;;;4987035;28;20441;-79
2023/03/02 02:06:53;;;;;;;43.47;21.60;;;2.10;99.90;;;;;;4983746;28;20125;-79
2023/03/02 02:09:21;;;;;;;46.28;22.38;;;2.10;99.90;;;;;;4979298;28;20054;-79
2023/03/02 02:11:47;;;;;;;44.80;22.48;;;2.60;99.90;;;;;;4986962;28;20034;-79
2023/03/02 02:14:13;;;;;;;45.45;22.60;;;2.00;99.90;;;;;;4969816;28;20057;-79
2023/03/02 02:16:40;;;;;;;43.15;22.65;;;2.00;99.90;;;;;;4987382;28;20046;-78
2023/03/02 02:19:29;;;;;;;42.95;23.42;;;1.90;99.90;;;;;;4987903;28;20046;-79
2023/03/02 02:21:55;;;;;;;46.25;23.48;;;1.90;99.90;;;;;;4984863;28;20046;-79
2023/03/02 02:24:56;;;;;;;44.45;23.33;;;1.90;99.90;;;;;;4986000;28;22122;-79
2023/03/02 02:27:32;;;;;;;46.38;22.75;;;1.90;99.90;;;;;;4982224;28;20073;-79
2023/03/02 02:29:59;;;;;;;44.05;22.52;;;1.90;99.90;;;;;;4985267;28;20126;-79
2023/03/02 02:32:29;;;;;;;46.08;23.75;;;1.90;99.90;;;;;;4986930;28;20042;-79
2023/03/02 02:35:11;;;;;;;40.92;21.55;;;1.90;99.90;;;;;;4985186;28;20893;-79
2023/03/02 02:37:50;;;;;;;46.38;21.40;;;1.90;99.90;;;;;;4983344;28;20141;-79
2023/03/02 02:40:20;;;;;;;41.78;21.75;;;1.90;99.90;;;;;;4970185;28;20093;-79
2023/03/02 02:42:50;;;;;;;47.90;22.23;;;1.90;99.90;;;;;;4984857;28;20046;-79
2023/03/02 02:45:23;;;;;;;40.30;21.38;;;1.90;99.90;;;;;;4981308;28;20057;-78
2023/03/02 02:47:51;;;;;;;40.95;21.05;;;1.90;99.90;;;;;;4987731;28;20054;-79
2023/03/02 02:50:24;;;;;;;45.53;22.38;;;1.90;99.90;;;;;;4984131;28;20082;-79
2023/03/02 02:53:00;;;;;;;44.95;22.35;;;2.00;99.90;;;;;;4987960;28;20616;-79
2023/03/02 02:55:26;;;;;;;47.92;23.42;;;1.90;99.90;;;;;;4984438;28;20197;-79
2023/03/02 02:57:56;;;;;;;45.30;22.50;;;2.00;99.90;;;;;;4985566;28;20151;-79
2023/03/02 03:00:22;;;;;;;46.00;22.60;;;1.90;99.90;;;;;;4987290;28;20042;-79
2023/03/02 03:03:00;;;;;;;41.17;21.05;;;1.90;99.90;;;;;;4985358;28;20042;-79
2023/03/02 03:05:26;;;;;;;43.72;21.85;;;2.60;99.90;;;;;;4986128;28;20100;-79
2023/03/02 03:07:52;;;;;;;45.08;23.25;;;1.90;99.90;;;;;;4976935;28;20047;-79
2023/03/02 03:10:21;;;;;;;42.00;21.02;;;1.90;99.90;;;;;;4982351;28;20063;-79
2023/03/02 03:12:47;;;;;;;41.25;22.52;;;1.90;99.90;;;;;;4987515;28;20042;-79
2023/03/02 03:15:14;;;;;;;38.95;19.45;;;1.90;99.90;;;;;;4987109;28;20039;-79
2023/03/02 03:17:39;;;;;;;42.58;20.20;;;1.90;99.90;;;;;;4975312;28;20145;-79
2023/03/02 03:20:07;;;;;;;42.03;20.83;;;1.90;99.90;;;;;;4986949;28;20101;-79
2023/03/02 03:22:37;;;;;;;40.22;20.27;;;1.90;99.90;;;;;;4990330;28;20530;-79
2023/03/02 03:25:04;;;;;;;35.92;19.50;;;1.90;99.90;;;;;;4990226;28;20050;-79
2023/03/02 03:27:29;;;;;;;36.13;19.67;;;1.80;99.90;;;;;;4991438;28;20038;-79
2023/03/02 03:29:55;;;;;;;40.25;18.52;;;1.80;99.90;;;;;;4988034;28;20508;-79
2023/03/02 03:32:21;;;;;;;38.95;19.73;;;1.80;99.90;;;;;;4971721;28;20093;-79
2023/03/02 03:34:46;;;;;;;35.63;18.55;;;1.70;99.90;;;;;;4979025;28;20055;-78
2023/03/02 03:37:16;;;;;;;36.05;18.40;;;1.70;99.90;;;;;;4983117;28;20053;-79
2023/03/02 03:39:42;;;;;;;38.00;19.65;;;1.70;99.90;;;;;;4991979;28;20073;-79
2023/03/02 03:42:08;;;;;;;40.55;19.27;;;1.70;99.90;;;;;;4987597;28;20128;-79
2023/03/02 03:44:34;;;;;;;38.42;19.20;;;1.60;99.90;;;;;;4972902;28;20428;-79
2023/03/02 03:47:00;;;;;;;36.58;17.23;;;1.70;99.90;;;;;;4984514;28;20054;-79
2023/03/02 03:49:26;;;;;;;33.85;17.75;;;1.60;99.90;;;;;;4990111;28;20073;-79
2023/03/02 03:51:52;;;;;;;41.08;17.65;;;1.60;99.90;;;;;;4988998;28;20050;-79
2023/03/02 03:54:18;;;;;;;38.65;18.27;;;1.60;99.90;;;;;;4989828;28;20038;-79
2023/03/02 03:56:47;;;;;;;40.65;18.50;;;1.50;99.90;;;;;;4987853;28;20038;-79
2023/03/02 03:59:20;;;;;;;35.90;17.05;;;1.50;99.90;;;;;;4988670;28;20038;-79
2023/03/02 04:01:49;;;;;;;34.95;17.35;;;1.50;99.90;;;;;;4989876;28;20050;-79
2023/03/02 04:04:26;;;;;;;37.45;17.00;;;1.50;99.90;;;;;;4972900;28;20485;-79
2023/03/02 04:06:53;;;;;;;36.00;17.75;;;1.50;99.90;;;;;;4976104;28;20816;-79
2023/03/02 04:09:19;;;;;;;36.80;17.70;;;1.40;99.90;;;;;;4977098;28;20113;-79
2023/03/02 04:11:46;;;;;;;35.72;17.23;;;1.40;99.90;;;;;;4971591;28;20474;-79
2023/03/02 04:14:12;;;;;;;43.88;18.25;;;1.40;99.90;;;;;;4986565;28;20046;-79
2023/03/02 04:16:39;;;;;;;38.17;17.83;;;1.40;99.90;;;;;;4986959;28;20046;-79
2023/03/02 04:19:08;;;;;;;41.22;19.35;;;1.40;99.90;;;;;;4989051;28;20038;-79
2023/03/02 04:21:39;;;;;;;43.80;19.05;;;1.40;99.90;;;;;;4978960;28;20055;-79
2023/03/02 04:24:06;;;;;;;71.57;18.55;;;1.50;99.90;;;;;;4970739;28;20053;-79
2023/03/02 04:26:32;;;;;;;42.35;18.88;;;1.40;99.90;;;;;;4987015;28;21192;-79
2023/03/02 04:28:58;;;;;;;61.13;18.38;;;1.40;99.90;;;;;;4988598;28;20504;-79
2023/03/02 04:31:24;;;;;;;50.33;19.05;;;1.40;99.90;;;;;;4989798;28;20484;-79
2023/03/02 04:33:49;;;;;;;47.05;18.05;;;1.40;99.90;;;;;;4989759;28;20399;-79
2023/03/02 04:36:15;;;;;;;52.13;17.83;;;1.40;99.90;;;;;;4979688;28;20465;-79
2023/03/02 04:38:41;;;;;;;42.60;17.45;;;1.40;99.90;;;;;;4973161;28;20054;-79
2023/03/02 04:41:06;;;;;;;45.65;17.30;;;1.30;99.90;;;;;;4978067;28;20074;-79
2023/03/02 04:43:32;;;;;;;60.53;17.20;;;1.30;99.90;;;;;;4978820;28;20122;-79
2023/03/02 04:45:57;;;;;;;62.20;18.00;;;1.30;99.90;;;;;;4985486;28;20347;-79
2023/03/02 04:48:24;;;;;;;72.75;18.17;;;1.20;99.90;;;;;;4987695;28;20556;-79
2023/03/02 04:50:50;;;;;;;85.43;18.95;;;1.20;99.90;;;;;;4988546;28;20121;-79
2023/03/02 04:53:15;;;;;;;56.78;18.38;;;1.20;99.90;;;;;;4988973;28;20129;-79
2023/03/02 04:55:41;;;;;;;66.88;16.83;;;1.20;99.90;;;;;;4988107;28;20034;-79
2023/03/02 04:58:07;;;;;;;77.15;19.27;;;1.20;99.90;;;;;;4986494;28;20104;-79
2023/03/02 05:00:34;;;;;;;67.35;18.58;;;1.20;99.90;;;;;;4988966;28;20087;-79
2023/03/02 05:03:02;;;;;;;75.60;18.42;;;1.10;99.90;;;;;;4989410;28;20129;-79
2023/03/02 05:05:28;;;;;;;58.13;18.75;;;1.20;99.90;;;;;;4986912;28;20053;-79
2023/03/02 05:07:54;;;;;;;64.82;18.77;;;1.10;99.90;;;;;;4996386;28;20129;-79
2023/03/02 05:10:21;;;;;;;56.22;18.10;;;1.10;99.90;;;;;;4985988;28;20121;-79
2023/03/02 05:12:53;;;;;;;70.30;19.60;;;1.10;99.90;;;;;;4987007;28;20462;-79
2023/03/02 05:15:21;;;;;;;52.35;19.50;;;1.10;99.90;;;;;;4983590;28;20134;-79
2023/03/02 05:17:47;;;;;;;63.47;18.63;;;1.10;99.90;;;;;;4986080;28;20038;-79
2023/03/02 05:20:13;;;;;;;66.60;19.02;;;1.10;99.90;;;;;;4988740;28;20061;-79
2023/03/02 05:22:38;;;;;;;73.88;19.90;;;1.10;99.90;;;;;;4988196;28;20116;-79
2023/03/02 05:25:05;;;;;;;76.63;18.85;;;1.10;99.90;;;;;;4985894;28;20503;-79
2023/03/02 05:27:31;;;;;;;82.88;20.73;;;1.10;99.90;;;;;;4987235;28;20508;-79
2023/03/02 05:29:56;;;;;;;63.40;20.08;;;1.10;99.90;;;;;;4987732;28;20125;-79
2023/03/02 05:32:22;;;;;;;52.90;19.05;;;1.10;99.90;;;;;;4987966;28;20349;-79
2023/03/02 05:34:47;;;;;;;72.43;21.17;;;1.10;99.90;;;;;;4986402;28;20077;-79
2023/03/02 05:37:13;;;;;;;63.80;20.10;;;1.10;99.90;;;;;;4984346;28;20086;-79
2023/03/02 05:39:38;;;;;;;59.35;19.25;;;1.20;99.90;;;;;;4984188;28;20053;-79
2023/03/02 05:42:04;;;;;;;70.28;21.95;;;1.10;99.90;;;;;;4987607;28;20157;-80
2023/03/02 05:44:31;;;;;;;64.00;19.80;;;1.10;99.90;;;;;;4987060;28;20055;-79
2023/03/02 05:47:14;;;;;;;82.07;20.40;;;1.20;99.90;;;;;;4984459;28;20050;-80
2023/03/02 05:49:40;;;;;;;83.45;20.02;;;1.20;99.90;;;;;;4989338;28;20056;-79
2023/03/02 05:52:05;;;;;;;84.70;20.67;;;1.10;99.90;;;;;;4989217;28;20054;-79
2023/03/02 05:54:38;;;;;;;91.30;21.67;;;1.10;99.90;;;;;;4989050;28;20062;-79
2023/03/02 05:57:06;;;;;;;87.00;20.48;;;1.00;99.90;;;;;;4983760;28;20516;-79
2023/03/02 05:59:31;;;;;;;84.40;22.15;;;1.00;99.90;;;;;;4969835;28;20046;-79
2023/03/02 06:01:58;;;;;;;75.30;20.10;;;1.00;99.90;;;;;;4969340;28;20049;-79
2023/03/02 06:04:27;;;;;;;83.50;21.65;;;1.00;99.90;;;;;;4988349;28;20060;-79
2023/03/02 06:06:52;;;;;;;88.60;21.27;;;0.90;99.90;;;;;;4979659;28;20136;-79
2023/03/02 06:09:18;;;;;;;82.18;20.83;;;0.90;99.90;;;;;;4984895;28;20088;-79
2023/03/02 06:11:44;;;;;;;89.53;22.05;;;0.90;99.90;;;;;;4989099;28;20449;-79
2023/03/02 06:14:09;;;;;;;105.13;22.92;;;0.90;99.90;;;;;;4987251;28;20039;-79
2023/03/02 06:16:36;;;;;;;88.68;21.98;;;0.80;99.90;;;;;;4970003;28;20046;-79
2023/03/02 06:19:02;;;;;;;78.35;22.45;;;0.80;99.90;;;;;;4985671;28;20129;-78
2023/03/02 06:21:27;;;;;;;85.47;22.55;;;0.80;99.90;;;;;;4987412;28;20034;-79
2023/03/02 06:23:53;;;;;;;80.82;22.27;;;0.80;99.90;;;;;;4988340;28;20109;-79
2023/03/02 06:26:19;;;;;;;68.72;20.27;;;0.80;99.90;;;;;;4984698;28;20054;-80
2023/03/02 06:28:44;;;;;;;71.20;21.00;;;0.80;99.90;;;;;;4989187;28;20552;-80
2023/03/02 06:31:15;;;;;;;81.07;21.48;;;0.80;99.90;;;;;;4989632;28;20043;-79
2023/03/02 06:34:03;;;;;;;85.90;21.50;;;0.80;99.90;;;;;;4984733;28;20046;-80
2023/03/02 06:36:28;;;;;;;84.25;21.67;;;0.90;99.90;;;;;;4991288;28;20090;-79
2023/03/02 06:38:54;;;;;;;97.35;22.27;;;0.80;99.90;;;;;;4988976;28;20069;-80
2023/03/02 06:41:19;;;;;;;81.22;22.15;;;0.80;99.90;;;;;;4981971;28;20038;-80
2023/03/02 06:43:45;;;;;;;101.10;21.15;;;0.80;99.90;;;;;;4987037;28;20039;-80
2023/03/02 06:46:11;;;;;;;96.38;20.88;;;0.80;99.90;;;;;;4983166;28;20531;-81
2023/03/02 06:48:37;;;;;;;81.63;21.02;;;0.80;99.90;;;;;;4991641;28;20051;-81
2023/03/02 06:51:03;;;;;;;100.13;21.38;;;0.70;99.90;;;;;;4992926;28;20046;-80
2023/03/02 06:53:28;;;;;;;77.45;20.30;;;0.70;99.90;;;;;;4989955;28;20053;-81
2023/03/02 06:55:54;;;;;;;63.47;19.10;;;0.70;99.90;;;;;;4990192;28;20544;-80
2023/03/02 06:58:20;;;;;;;81.45;20.65;;;0.80;99.90;;;;;;4991857;28;20077;-80
2023/03/02 07:00:45;;;;;;;103.90;22.02;;;0.80;99.90;;;;;;4992415;28;20054;-80
2023/03/02 07:03:11;;;;;;;103.03;23.98;;;0.80;99.90;;;;;;4974938;28;20073;-81
2023/03/02 07:05:37;;;;;;;78.82;20.88;;;0.80;99.90;;;;;;4992012;28;20121;-81
2023/03/02 07:08:02;;;;;;;74.40;22.02;;;0.80;99.90;;;;;;4990711;28;20408;-81
2023/03/02 07:10:28;;;;;;;79.07;21.67;;;0.90;99.90;;;;;;4988801;28;20555;-80
2023/03/02 07:12:54;;;;;;;72.45;21.25;;;0.90;99.90;;;;;;4990886;28;20552;-80
2023/03/02 07:15:20;;;;;;;80.68;21.15;;;1.00;99.90;;;;;;4987620;28;20084;-80
2023/03/02 07:17:46;;;;;;;85.15;22.17;;;1.00;99.90;;;;;;4981739;28;20485;-80
2023/03/02 07:20:14;;;;;;;117.82;23.77;;;1.00;99.90;;;;;;4990790;28;20034;-81
2023/03/02 07:22:41;;;;;;;342.80;45.88;;;1.00;99.90;;;;;;4974181;28;20405;-80
2023/03/02 07:25:08;;;;;;;80.68;20.08;;;1.00;99.90;;;;;;4975005;28;20408;-81
2023/03/02 07:27:34;;;;;;;74.75;21.65;;;1.00;99.90;;;;;;4991535;28;20073;-80
2023/03/02 07:30:00;;;;;;;60.33;20.98;;;1.00;99.90;;;;;;4991926;28;20046;-80
2023/03/02 07:32:25;;;;;;;105.53;23.25;;;1.10;99.90;;;;;;4991186;28;20046;-80
2023/03/02 07:34:51;;;;;;;325.30;44.40;;;1.10;99.90;;;;;;4987909;28;20074;-80
2023/03/02 07:37:17;;;;;;;73.13;20.02;;;1.20;99.90;;;;;;4991145;28;20500;-79
2023/03/02 07:39:42;;;;;;;93.85;20.80;;;1.20;99.90;;;;;;4990794;28;20081;-80
2023/03/02 07:42:10;;;;;;;155.07;26.90;;;1.20;99.90;;;;;;4990942;28;20049;-79
2023/03/02 07:44:36;;;;;;;83.78;19.45;;;1.10;99.90;;;;;;4990817;28;20141;-80
2023/03/02 07:47:02;;;;;;;61.50;19.50;;;1.20;99.90;;;;;;4990177;28;20042;-78
2023/03/02 07:49:28;;;;;;;151.15;25.33;;;1.10;99.90;;;;;;4986175;28;20084;-80
2023/03/02 07:51:53;;;;;;;168.85;28.20;;;1.90;99.90;;;;;;4991233;28;20093;-80
2023/03/02 07:54:19;;;;;;;94.40;21.73;;;1.20;99.90;;;;;;4990593;28;20053;-80
2023/03/02 07:56:45;;;;;;;156.63;27.73;;;1.20;99.90;;;;;;4990402;28;20038;-80
2023/03/02 07:59:11;;;;;;;164.52;26.83;;;1.20;99.90;;;;;;4989277;28;20444;-81
2023/03/02 08:01:37;;;;;;;167.05;27.17;;;1.20;99.90;;;;;;4989062;28;20074;-80
2023/03/02 08:04:03;;;;;;;70.70;19.52;;;1.20;99.90;;;;;;4990920;28;20097;-80
2023/03/02 08:06:29;;;;;;;114.35;22.27;;;1.20;99.90;;;;;;4990677;28;20299;-80
2023/03/02 08:08:55;;;;;;;48.40;17.55;;;1.30;99.90;;;;;;4989902;28;20066;-81
2023/03/02 08:11:20;;;;;;;240.00;36.95;;;1.30;99.90;;;;;;4989667;28;20129;-81
2023/03/02 08:13:46;;;;;;;93.35;21.85;;;1.30;99.90;;;;;;4990143;28;20165;-81
2023/03/02 08:16:13;;;;;;;59.65;19.50;;;1.30;99.90;;;;;;4991197;28;20939;-80
2023/03/02 08:18:40;;;;;;;50.38;18.02;;;1.40;99.90;;;;;;4989699;28;20054;-80
2023/03/02 08:21:17;;;;;;;44.58;18.27;;;1.40;99.90;;;;;;4990803;28;20528;-80
2023/03/02 08:23:43;;;;;;;48.03;19.52;;;1.40;99.90;;;;;;4988807;28;20054;-79
2023/03/02 08:26:09;;;;;;;54.15;20.13;;;1.50;99.90;;;;;;4989015;28;20043;-80
2023/03/02 08:28:35;;;;;;;62.80;19.95;;;1.60;99.90;;;;;;4990584;28;20101;-80
2023/03/02 08:31:03;;;;;;;67.20;20.45;;;1.60;99.90;;;;;;4989636;28;20047;-80
2023/03/02 08:33:29;;;;;;;67.40;19.95;;;1.60;99.90;;;;;;4989036;28;20057;-80
2023/03/02 08:36:08;;;;;;;53.40;18.65;;;1.60;99.90;;;;;;4988891;28;20046;-80
2023/03/02 08:38:34;;;;;;;57.22;18.05;;;1.60;99.90;;;;;;4987231;28;20476;-80
2023/03/02 08:41:08;;;;;;;57.30;19.17;;;1.60;99.90;;;;;;4990076;28;20053;-80
2023/03/02 08:43:34;;;;;;;50.05;17.90;;;1.60;99.90;;;;;;4988629;28;20058;-80
2023/03/02 08:46:00;;;;;;;53.70;18.42;;;1.60;99.90;;;;;;4988754;28;20065;-80
2023/03/02 08:48:27;;;;;;;37.47;16.17;;;1.70;99.90;;;;;;4990025;28;20169;-80
2023/03/02 08:50:56;;;;;;;51.33;18.48;;;1.70;99.90;;;;;;4989301;28;20056;-80
2023/03/02 08:53:22;;;;;;;42.85;16.98;;;1.70;99.90;;;;;;4985450;28;20049;-80
2023/03/02 08:55:48;;;;;;;55.85;17.25;;;1.80;99.90;;;;;;4986952;28;20038;-80
2023/03/02 08:58:13;;;;;;;44.25;16.65;;;1.80;99.90;;;;;;4986292;28;20081;-80
2023/03/02 09:00:39;;;;;;;73.60;18.63;;;2.50;99.90;;;;;;4986205;28;20043;-80
2023/03/02 09:03:05;;;;;;;64.93;18.77;;;1.70;99.90;;;;;;4987847;28;20075;-79
2023/03/02 09:05:30;;;;;;;51.42;17.25;;;1.60;99.90;;;;;;4985999;28;20153;-80
2023/03/02 09:07:56;;;;;;;42.05;16.92;;;1.90;99.90;;;;;;4985766;28;20038;-79
2023/03/02 09:10:22;;;;;;;39.45;16.50;;;1.50;99.90;;;;;;4985233;28;20042;-80
2023/03/02 09:12:47;;;;;;;41.88;18.60;;;1.80;99.90;;;;;;4979401;28;20046;-80
2023/03/02 09:15:13;;;;;;;36.17;16.50;;;1.80;99.90;;;;;;4975833;28;20070;-80
2023/03/02 09:17:38;;;;;;;55.60;17.58;;;1.90;99.90;;;;;;4969018;28;20075;-80
2023/03/02 09:20:05;;;;;;;45.10;16.60;;;2.00;99.90;;;;;;4970557;28;20039;-80
2023/03/02 09:22:31;;;;;;;49.88;16.25;;;2.10;99.90;;;;;;4969984;28;20065;-81
2023/03/02 09:24:56;;;;;;;34.95;17.55;;;2.10;99.90;;;;;;4982288;28;20043;-79
2023/03/02 09:27:22;;;;;;;35.90;15.90;;;2.10;99.90;;;;;;4987954;28;20046;-80
2023/03/02 09:29:47;;;;;;;34.70;17.52;;;2.20;99.90;;;;;;4988295;28;20046;-80
2023/03/02 09:32:14;;;;;;;45.05;16.48;;;2.20;99.90;;;;;;4989782;28;20046;-80
2023/03/02 09:34:40;;;;;;;31.15;15.57;;;3.50;99.90;;;;;;4987802;28;20046;-81
2023/03/02 09:37:05;;;;;;;44.75;18.17;;;2.30;99.90;;;;;;5003871;28;20058;-81
2023/03/02 09:39:31;;;;;;;32.15;16.63;;;2.30;99.90;;;;;;4987772;28;20074;-83
2023/03/02 09:42:00;;;;;;;29.77;15.75;;;2.40;99.90;;;;;;4985753;28;20053;-81
2023/03/02 09:44:47;;;;;;;32.05;16.83;;;2.40;99.90;;;;;;4971275;28;20409;-81
2023/03/02 09:48:17;;;;;;;32.65;16.98;;;2.50;99.90;;;;;;4969570;28;20043;-81
2023/03/02 09:51:13;;;;;;;34.03;17.17;;;2.50;99.90;;;;;;4905441;29;21181;-81
2023/03/02 09:53:39;;;;;;;34.13;16.30;;;2.60;99.90;;;;;;4967631;28;20454;-81
2023/03/02 09:56:13;;;;;;;37.30;17.88;;;2.70;99.90;;;;;;4975817;28;20042;-81
2023/03/02 09:58:41;;;;;;;34.42;16.95;;;2.80;99.90;;;;;;4987354;28;20039;-81
2023/03/02 10:01:20;;;;;;;35.22;16.83;;;2.90;99.90;;;;;;4987259;28;20058;-81
2023/03/02 10:03:55;;;;;;;35.90;17.63;;;2.90;99.90;;;;;;4987953;28;20117;-82
2023/03/02 10:06:20;;;;;;;30.08;16.77;;;3.60;99.90;;;;;;4987447;28;20152;-83
2023/03/02 10:08:49;;;;;;;30.02;18.08;;;3.10;99.90;;;;;;4970516;28;20153;-82
2023/03/02 10:11:20;;;;;;;30.90;18.33;;;3.20;99.90;;;;;;4970177;28;20038;-82
2023/03/02 10:14:11;;;;;;;28.30;17.33;;;3.10;99.90;;;;;;4986937;28;20042;-83
2023/03/02 10:16:45;;;;;;;31.63;17.35;;;3.20;99.90;;;;;;4987252;28;20369;-83
2023/03/02 10:19:18;;;;;;;28.05;15.55;;;3.20;99.90;;;;;;4987282;28;20432;-83
2023/03/02 10:21:46;;;;;;;25.70;15.93;;;3.20;99.90;;;;;;4982487;28;20074;-82
2023/03/02 10:24:25;;;;;;;24.33;15.43;;;3.30;99.90;;;;;;4968145;28;20521;-83
2023/03/02 10:26:53;;;;;;;31.70;17.75;;;3.30;99.90;;;;;;4974728;28;20082;-83
2023/03/02 10:29:34;;;;;;;29.58;18.02;;;3.40;99.90;;;;;;4970141;28;20050;-83
2023/03/02 10:32:15;;;;;;;32.50;17.38;;;3.50;99.90;;;;;;4987325;28;20065;-82
2023/03/02 10:34:40;;;;;;;30.60;18.38;;;3.70;99.90;;;;;;4986845;28;20053;-83
2023/03/02 10:37:23;;;;;;;29.17;17.52;;;3.50;99.90;;;;;;4968847;28;20058;-83
2023/03/02 10:39:51;;;;;;;28.02;17.05;;;3.30;99.90;;;;;;4986921;28;20135;-83
2023/03/02 10:42:19;;;;;;;29.63;17.48;;;3.70;99.90;;;;;;4986834;28;20104;-83
2023/03/02 10:44:49;;;;;;;33.30;18.63;;;3.60;99.90;;;;;;4987299;28;20058;-82
2023/03/02 10:47:25;;;;;;;45.33;30.27;;;3.70;99.90;;;;;;4987405;28;20045;-81
2023/03/02 10:49:52;;;;;;;40.22;28.05;;;4.00;99.90;;;;;;4987890;28;20096;-81
2023/03/02 10:52:21;;;;;;;43.20;32.28;;;4.00;99.90;;;;;;4985864;28;20053;-80
2023/03/02 10:54:47;;;;;;;33.35;23.38;;;3.80;99.90;;;;;;4971436;28;20046;-81
2023/03/02 10:57:27;;;;;;;33.20;20.83;;;3.90;99.90;;;;;;4987268;28;20531;-82
2023/03/02 11:00:17;;;;;;;30.40;19.13;;;3.80;99.90;;;;;;4988165;28;20062;-80
2023/03/02 11:03:18;;;;;;;29.85;18.45;;;4.10;99.90;;;;;;4990880;28;20065;-80
2023/03/02 11:05:44;;;;;;;39.33;25.40;;;4.00;99.90;;;;;;4987657;28;21020;-79
2023/03/02 11:08:25;;;;;;;33.75;22.48;;;3.50;99.90;;;;;;4986862;28;20092;-80
2023/03/02 11:10:55;;;;;;;36.03;24.02;;;4.00;99.90;;;;;;4985222;28;20069;-80
2023/03/02 11:13:28;;;;;;;32.20;19.98;;;3.60;99.90;;;;;;4988847;28;20054;-80
2023/03/02 11:15:55;;;;;;;;;;;4.10;99.90;;;;;;4971648;28;20551;-78
2023/03/02 11:18:43;;;;;;;37.53;23.58;;;4.10;99.90;;;;;;4985403;28;19926;-78
2023/03/02 11:21:39;;;;;;;35.83;24.70;;;4.10;99.90;;;;;;4986804;28;20102;-79
2023/03/02 11:24:05;;;;;;;30.30;17.58;;;4.20;99.90;;;;;;4976120;28;20056;-79
2023/03/02 11:26:52;;;;;;;29.55;18.73;;;4.30;99.90;;;;;;4987185;28;20162;-79
2023/03/02 11:29:21;;;;;;;30.63;18.27;;;4.30;99.90;;;;;;4986151;28;20050;-79
2023/03/02 11:31:54;;;;;;;28.35;17.75;;;4.50;99.90;;;;;;4985295;28;20063;-79
2023/03/02 11:34:23;;;;;;;32.45;20.17;;;4.60;99.90;;;;;;4986497;28;20038;-79
2023/03/02 11:37:05;;;;;;;29.13;18.58;;;5.10;99.90;;;;;;4992462;28;20066;-79
2023/03/02 11:39:58;;;;;;;28.83;18.13;;;4.60;99.90;;;;;;4992154;28;20054;-79
2023/03/02 11:42:33;;;;;;;29.05;17.40;;;4.60;99.90;;;;;;4991939;28;20046;-80
2023/03/02 11:45:13;;;;;;;28.55;17.90;;;4.80;99.90;;;;;;4990398;28;20054;-79
2023/03/02 11:47:42;;;;;;;29.25;18.55;;;4.90;99.90;;;;;;4991038;28;20795;-80
2023/03/02 11:50:13;;;;;;;28.90;18.60;;;4.90;99.90;;;;;;4991179;28;20054;-79
2023/03/02 11:52:44;;;;;;;31.70;21.67;;;5.30;99.90;;;;;;4990004;28;20097;-80
2023/03/02 11:55:23;;;;;;;40.25;22.25;;;4.90;99.90;;;;;;4990585;28;20500;-80
2023/03/02 11:57:52;;;;;;;33.42;26.17;;;5.10;99.90;;;;;;4990686;28;20038;-80
2023/03/02 12:00:37;;;;;;;30.63;21.63;;;5.60;99.90;;;;;;4989154;28;20039;-80
2023/03/02 12:03:07;;;;;;;28.02;17.52;;;5.10;99.90;;;;;;4974585;28;20057;-81
2023/03/02 12:05:36;;;;;;;28.45;17.63;;;5.10;99.90;;;;;;4990754;28;20532;-80
2023/03/02 12:08:26;;;;;;;25.30;16.88;;;5.10;99.90;;;;;;4974121;28;20046;-80
2023/03/02 12:11:15;;;;;;;26.77;16.10;;;5.00;99.90;;;;;;4974314;28;20081;-80
2023/03/02 12:13:42;;;;;;;26.15;16.45;;;4.80;99.90;;;;;;4973990;28;20066;-79
2023/03/02 12:16:21;;;;;;;25.38;16.80;;;5.00;99.90;;;;;;4987157;28;20520;-79
2023/03/02 12:18:49;;;;;;;28.55;20.00;;;5.00;99.90;;;;;;4989001;28;20046;-79
2023/03/02 12:21:24;;;;;;;26.25;16.95;;;5.00;99.90;;;;;;4990342;28;20050;-81
2023/03/02 12:23:50;;;;;;;25.75;16.65;;;4.90;99.90;;;;;;4990698;28;20046;-80
2023/03/02 12:26:18;;;;;;;27.75;18.08;;;5.00;99.90;;;;;;4989744;28;20050;-80
2023/03/02 12:29:20;;;;;;;29.02;16.67;;;5.10;99.90;;;;;;4973542;28;20111;-80
2023/03/02 12:31:49;;;;;;;27.33;17.40;;;5.10;99.90;;;;;;4990363;28;20051;-80
2023/03/02 12:34:26;;;;;;;24.30;15.93;;;5.40;99.90;;;;;;4990302;28;20038;-80
2023/03/02 12:37:20;;;;;;;25.77;16.77;;;5.50;99.90;;;;;;4989698;28;20062;-78
2023/03/02 12:39:54;;;;;;;25.52;16.67;;;5.50;99.90;;;;;;4991346;28;20112;-78
2023/03/02 12:42:33;;;;;;;25.35;15.98;;;5.30;99.90;;;;;;4988125;28;20105;-78
2023/03/02 12:45:22;;;;;;;28.30;17.30;;;5.20;99.90;;;;;;4973547;28;20527;-78
2023/03/02 12:47:55;;;;;;;25.35;16.23;;;5.30;99.90;;;;;;4990053;28;20065;-80
2023/03/02 12:50:26;;;;;;;27.77;17.90;;;5.30;99.90;;;;;;4990760;28;20058;-80